sensor_id;sensor_type;location;lat;lon;timestamp;temperature;humidity
15700;DHT22;7950;42.744;23.174;2023-07-09T00:02:25;16.30;99.90
15700;DHT22;7950;42.744;23.174;2023-07-09T00:04:54;16.30;99.90
15700;DHT22;7950;42.744;23.174;2023-07-09T00:07:25;16.20;99.90
15700;DHT22;7950;42.744;23.174;2023-07-09T00:09:57;16.10;99.90
15700;DHT22;7950;42.744;23.174;2023-07-09T00:12:27;16.10;99.90
15700;DHT22;7950;42.744;23.174;2023-07-09T00:14:57;16.00;99.90
15700;DHT22;7950;42.744;23.174;2023-07-09T00:17:27;15.90;99.90
15700;DHT22;7950;42.744;23.174;2023-07-09T00:19:58;15.80;99.90
15700;DHT22;7950;42.744;23.174;2023-07-09T00:22:27;15.70;99.90
15700;DHT22;7950;42.744;23.174;2023-07-09T00:24:56;15.60;99.90
15700;DHT22;7950;42.744;23.174;2023-07-09T00:27:28;15.60;99.90
15700;DHT22;7950;42.744;23.174;2023-07-09T00:29:59;15.50;99.90
15700;DHT22;7950;42.744;23.174;2023-07-09T00:32:31;15.50;99.90
15700;DHT22;7950;42.744;23.174;2023-07-09T00:35:00;15.40;99.90
15700;DHT22;7950;42.744;23.174;2023-07-09T00:37:32;15.30;99.90
15700;DHT22;7950;42.744;23.174;2023-07-09T00:40:00;15.30;99.90
15700;DHT22;7950;42.744;23.174;2023-07-09T00:42:29;15.20;99.90
15700;DHT22;7950;42.744;23.174;2023-07-09T00:44:59;15.20;99.90
15700;DHT22;7950;42.744;23.174;2023-07-09T00:47:44;15.10;99.90
15700;DHT22;7950;42.744;23.174;2023-07-09T00:50:33;15.10;99.90
15700;DHT22;7950;42.744;23.174;2023-07-09T00:53:10;15.00;99.90
15700;DHT22;7950;42.744;23.174;2023-07-09T00:55:49;15.00;99.90
15700;DHT22;7950;42.744;23.174;2023-07-09T00:58:24;15.00;99.90
15700;DHT22;7950;42.744;23.174;2023-07-09T01:01:00;14.90;99.90
15700;DHT22;7950;42.744;23.174;2023-07-09T01:03:35;14.90;99.90
15700;DHT22;7950;42.744;23.174;2023-07-09T01:06:08;14.90;99.90
15700;DHT22;7950;42.744;23.174;2023-07-09T01:08:40;14.90;99.90
15700;DHT22;7950;42.744;23.174;2023-07-09T01:11:15;14.90;99.90
15700;DHT22;7950;42.744;23.174;2023-07-09T01:13:48;14.90;99.90
15700;DHT22;7950;42.744;23.174;2023-07-09T01:16:22;14.90;99.90
15700;DHT22;7950;42.744;23.174;2023-07-09T01:18:52;14.90;99.90
15700;DHT22;7950;42.744;23.174;2023-07-09T01:21:23;14.90;99.90
15700;DHT22;7950;42.744;23.174;2023-07-09T01:23:52;14.80;99.90
15700;DHT22;7950;42.744;23.174;2023-07-09T01:26:24;14.90;99.90
15700;DHT22;7950;42.744;23.174;2023-07-09T01:28:55;14.90;99.90
15700;DHT22;7950;42.744;23.174;2023-07-09T01:31:24;14.90;99.90
15700;DHT22;7950;42.744;23.174;2023-07-09T01:33:52;14.90;99.90
15700;DHT22;7950;42.744;23.174;2023-07-09T01:36:23;14.90;99.90
15700;DHT22;7950;42.744;23.174;2023-07-09T01:38:52;14.90;99.90
15700;DHT22;7950;42.744;23.174;2023-07-09T01:41:21;14.90;99.90
15700;DHT22;7950;42.744;23.174;2023-07-09T01:43:50;14.90;99.90
15700;DHT22;7950;42.744;23.174;2023-07-09T01:46:19;14.80;99.90
15700;DHT22;7950;42.744;23.174;2023-07-09T01:48:48;14.80;99.90
15700;DHT22;7950;42.744;23.174;2023-07-09T01:51:20;14.80;99.90
15700;DHT22;7950;42.744;23.174;2023-07-09T01:53:51;14.80;99.90
15700;DHT22;7950;42.744;23.174;2023-07-09T01:56:20;14.80;99.90
15700;DHT22;7950;42.744;23.174;2023-07-09T01:58:51;14.80;99.90
15700;DHT22;7950;42.744;23.174;2023-07-09T02:01:19;14.70;99.90
15700;DHT22;7950;42.744;23.174;2023-07-09T02:03:48;14.70;99.90
15700;DHT22;7950;42.744;23.174;2023-07-09T02:06:17;14.70;99.90
15700;DHT22;7950;42.744;23.174;2023-07-09T02:08:46;14.70;99.90
15700;DHT22;7950;42.744;23.174;2023-07-09T02:11:16;14.70;99.90
15700;DHT22;7950;42.744;23.174;2023-07-09T02:13:45;14.70;99.90
15700;DHT22;7950;42.744;23.174;2023-07-09T02:16:13;14.70;99.90
15700;DHT22;7950;42.744;23.174;2023-07-09T02:18:42;14.70;99.90
15700;DHT22;7950;42.744;23.174;2023-07-09T02:21:10;14.80;99.90
15700;DHT22;7950;42.744;23.174;2023-07-09T02:23:39;14.80;99.90
15700;DHT22;7950;42.744;23.174;2023-07-09T02:26:07;14.80;99.90
15700;DHT22;7950;42.744;23.174;2023-07-09T02:28:38;14.80;99.90
15700;DHT22;7950;42.744;23.174;2023-07-09T02:31:06;14.80;99.90
15700;DHT22;7950;42.744;23.174;2023-07-09T02:33:35;14.80;99.90
15700;DHT22;7950;42.744;23.174;2023-07-09T02:36:04;14.80;99.90
15700;DHT22;7950;42.744;23.174;2023-07-09T02:38:32;14.80;99.90
15700;DHT22;7950;42.744;23.174;2023-07-09T02:41:01;14.80;99.90
15700;DHT22;7950;42.744;23.174;2023-07-09T02:43:29;14.80;99.90
15700;DHT22;7950;42.744;23.174;2023-07-09T02:45:59;14.70;99.90
15700;DHT22;7950;42.744;23.174;2023-07-09T02:48:28;14.70;99.90
15700;DHT22;7950;42.744;23.174;2023-07-09T02:50:57;14.70;99.90
15700;DHT22;7950;42.744;23.174;2023-07-09T02:53:27;14.60;99.90
15700;DHT22;7950;42.744;23.174;2023-07-09T02:55:56;14.60;99.90
15700;DHT22;7950;42.744;23.174;2023-07-09T02:58:24;14.60;99.90
15700;DHT22;7950;42.744;23.174;2023-07-09T03:00:53;14.50;99.90
15700;DHT22;7950;42.744;23.174;2023-07-09T03:03:23;14.50;99.90
15700;DHT22;7950;42.744;23.174;2023-07-09T03:05:51;14.50;99.90
15700;DHT22;7950;42.744;23.174;2023-07-09T03:08:20;14.60;99.90
15700;DHT22;7950;42.744;23.174;2023-07-09T03:10:48;14.50;99.90
15700;DHT22;7950;42.744;23.174;2023-07-09T03:13:17;14.50;99.90
15700;DHT22;7950;42.744;23.174;2023-07-09T03:15:54;14.50;99.90
15700;DHT22;7950;42.744;23.174;2023-07-09T03:18:24;14.50;99.90
15700;DHT22;7950;42.744;23.174;2023-07-09T03:20:53;14.50;99.90
15700;DHT22;7950;42.744;23.174;2023-07-09T03:23:21;14.60;99.90
15700;DHT22;7950;42.744;23.174;2023-07-09T03:25:50;14.70;99.90
15700;DHT22;7950;42.744;23.174;2023-07-09T03:28:19;14.60;99.90
15700;DHT22;7950;42.744;23.174;2023-07-09T03:30:48;14.60;99.90
15700;DHT22;7950;42.744;23.174;2023-07-09T03:33:17;14.60;99.90
15700;DHT22;7950;42.744;23.174;2023-07-09T03:35:47;14.60;99.90
15700;DHT22;7950;42.744;23.174;2023-07-09T03:38:16;14.60;99.90
15700;DHT22;7950;42.744;23.174;2023-07-09T03:40:44;14.60;99.90
15700;DHT22;7950;42.744;23.174;2023-07-09T03:43:14;14.70;99.90
15700;DHT22;7950;42.744;23.174;2023-07-09T03:45:44;14.70;99.90
15700;DHT22;7950;42.744;23.174;2023-07-09T03:48:14;14.70;99.90
15700;DHT22;7950;42.744;23.174;2023-07-09T03:50:47;14.80;99.90
15700;DHT22;7950;42.744;23.174;2023-07-09T03:53:16;14.90;99.90
15700;DHT22;7950;42.744;23.174;2023-07-09T03:55:46;14.90;99.90
15700;DHT22;7950;42.744;23.174;2023-07-09T03:58:19;15.00;99.90
15700;DHT22;7950;42.744;23.174;2023-07-09T04:00:48;15.00;99.90
15700;DHT22;7950;42.744;23.174;2023-07-09T04:03:16;15.10;99.90
15700;DHT22;7950;42.744;23.174;2023-07-09T04:05:47;15.20;99.90
15700;DHT22;7950;42.744;23.174;2023-07-09T04:08:15;15.30;99.90
15700;DHT22;7950;42.744;23.174;2023-07-09T04:10:44;15.40;99.90
15700;DHT22;7950;42.744;23.174;2023-07-09T04:13:13;15.60;99.90
15700;DHT22;7950;42.744;23.174;2023-07-09T04:15:41;15.70;99.90
15700;DHT22;7950;42.744;23.174;2023-07-09T04:18:10;15.80;99.90
15700;DHT22;7950;42.744;23.174;2023-07-09T04:20:38;16.00;99.90
15700;DHT22;7950;42.744;23.174;2023-07-09T04:23:08;16.10;99.90
15700;DHT22;7950;42.744;23.174;2023-07-09T04:25:38;16.30;99.90
15700;DHT22;7950;42.744;23.174;2023-07-09T04:28:06;16.50;99.90
15700;DHT22;7950;42.744;23.174;2023-07-09T04:30:35;16.60;99.90
15700;DHT22;7950;42.744;23.174;2023-07-09T04:33:04;16.80;99.90
15700;DHT22;7950;42.744;23.174;2023-07-09T04:35:33;17.00;99.90
15700;DHT22;7950;42.744;23.174;2023-07-09T04:38:02;17.10;99.90
15700;DHT22;7950;42.744;23.174;2023-07-09T04:40:32;17.30;99.90
15700;DHT22;7950;42.744;23.174;2023-07-09T04:43:00;17.50;99.90
15700;DHT22;7950;42.744;23.174;2023-07-09T04:45:29;17.60;99.90
15700;DHT22;7950;42.744;23.174;2023-07-09T04:47:58;17.80;99.90
15700;DHT22;7950;42.744;23.174;2023-07-09T04:50:26;18.00;99.90
15700;DHT22;7950;42.744;23.174;2023-07-09T04:52:55;18.10;99.90
15700;DHT22;7950;42.744;23.174;2023-07-09T04:55:23;18.30;99.90
15700;DHT22;7950;42.744;23.174;2023-07-09T04:57:55;18.40;99.90
15700;DHT22;7950;42.744;23.174;2023-07-09T05:00:23;18.60;99.90
15700;DHT22;7950;42.744;23.174;2023-07-09T05:02:52;18.80;99.90
15700;DHT22;7950;42.744;23.174;2023-07-09T05:05:21;18.90;99.90
15700;DHT22;7950;42.744;23.174;2023-07-09T05:07:50;19.00;99.90
15700;DHT22;7950;42.744;23.174;2023-07-09T05:10:19;19.10;99.90
15700;DHT22;7950;42.744;23.174;2023-07-09T05:12:49;19.30;99.90
15700;DHT22;7950;42.744;23.174;2023-07-09T05:15:20;19.40;99.90
15700;DHT22;7950;42.744;23.174;2023-07-09T05:17:50;19.50;99.90
15700;DHT22;7950;42.744;23.174;2023-07-09T05:20:19;19.60;99.90
15700;DHT22;7950;42.744;23.174;2023-07-09T05:22:48;19.70;99.90
15700;DHT22;7950;42.744;23.174;2023-07-09T05:25:17;19.90;99.90
15700;DHT22;7950;42.744;23.174;2023-07-09T05:27:45;20.00;99.90
15700;DHT22;7950;42.744;23.174;2023-07-09T05:30:14;20.20;99.90
15700;DHT22;7950;42.744;23.174;2023-07-09T05:32:44;20.30;99.90
15700;DHT22;7950;42.744;23.174;2023-07-09T05:35:14;20.40;99.90
15700;DHT22;7950;42.744;23.174;2023-07-09T05:37:42;20.50;99.90
15700;DHT22;7950;42.744;23.174;2023-07-09T05:40:11;20.70;99.90
15700;DHT22;7950;42.744;23.174;2023-07-09T05:42:40;20.80;99.90
15700;DHT22;7950;42.744;23.174;2023-07-09T05:45:10;20.90;99.90
15700;DHT22;7950;42.744;23.174;2023-07-09T05:47:39;21.00;99.90
15700;DHT22;7950;42.744;23.174;2023-07-09T05:50:10;21.10;99.90
15700;DHT22;7950;42.744;23.174;2023-07-09T05:52:38;21.20;99.90
15700;DHT22;7950;42.744;23.174;2023-07-09T05:55:07;21.20;99.90
15700;DHT22;7950;42.744;23.174;2023-07-09T05:57:36;21.30;99.90
15700;DHT22;7950;42.744;23.174;2023-07-09T06:00:07;21.50;99.90
15700;DHT22;7950;42.744;23.174;2023-07-09T06:02:39;21.60;99.90
15700;DHT22;7950;42.744;23.174;2023-07-09T06:05:09;21.60;99.90
15700;DHT22;7950;42.744;23.174;2023-07-09T06:07:38;21.60;99.90
15700;DHT22;7950;42.744;23.174;2023-07-09T06:10:08;21.60;99.90
15700;DHT22;7950;42.744;23.174;2023-07-09T06:12:37;21.80;99.90
15700;DHT22;7950;42.744;23.174;2023-07-09T06:15:07;21.80;99.90
15700;DHT22;7950;42.744;23.174;2023-07-09T06:17:38;21.90;99.90
15700;DHT22;7950;42.744;23.174;2023-07-09T06:20:09;21.90;99.90
15700;DHT22;7950;42.744;23.174;2023-07-09T06:22:38;21.90;99.90
15700;DHT22;7950;42.744;23.174;2023-07-09T06:25:07;22.00;99.90
15700;DHT22;7950;42.744;23.174;2023-07-09T06:27:36;22.10;99.90
15700;DHT22;7950;42.744;23.174;2023-07-09T06:30:06;22.10;99.90
15700;DHT22;7950;42.744;23.174;2023-07-09T06:32:36;22.10;99.90
15700;DHT22;7950;42.744;23.174;2023-07-09T06:35:05;22.10;99.90
15700;DHT22;7950;42.744;23.174;2023-07-09T06:37:35;22.20;99.90
15700;DHT22;7950;42.744;23.174;2023-07-09T06:40:05;22.20;99.90
15700;DHT22;7950;42.744;23.174;2023-07-09T06:42:35;22.30;99.90
15700;DHT22;7950;42.744;23.174;2023-07-09T06:45:05;22.40;99.90
15700;DHT22;7950;42.744;23.174;2023-07-09T06:47:34;22.40;99.90
15700;DHT22;7950;42.744;23.174;2023-07-09T06:50:03;22.40;99.90
15700;DHT22;7950;42.744;23.174;2023-07-09T06:52:32;22.60;99.90
15700;DHT22;7950;42.744;23.174;2023-07-09T06:55:02;22.70;99.90
15700;DHT22;7950;42.744;23.174;2023-07-09T06:57:31;22.80;99.90
15700;DHT22;7950;42.744;23.174;2023-07-09T07:00:00;22.90;99.90
15700;DHT22;7950;42.744;23.174;2023-07-09T07:02:28;23.00;99.90
15700;DHT22;7950;42.744;23.174;2023-07-09T07:04:57;23.10;99.80
15700;DHT22;7950;42.744;23.174;2023-07-09T07:07:26;23.20;99.90
15700;DHT22;7950;42.744;23.174;2023-07-09T07:09:54;23.30;99.90
15700;DHT22;7950;42.744;23.174;2023-07-09T07:12:28;23.30;98.50
15700;DHT22;7950;42.744;23.174;2023-07-09T07:15:09;23.30;99.00
15700;DHT22;7950;42.744;23.174;2023-07-09T07:17:38;23.30;96.70
15700;DHT22;7950;42.744;23.174;2023-07-09T07:20:08;23.30;99.00
15700;DHT22;7950;42.744;23.174;2023-07-09T07:22:38;23.30;97.20
15700;DHT22;7950;42.744;23.174;2023-07-09T07:25:08;23.30;97.30
15700;DHT22;7950;42.744;23.174;2023-07-09T07:27:38;23.30;96.30
15700;DHT22;7950;42.744;23.174;2023-07-09T07:30:08;23.30;97.30
15700;DHT22;7950;42.744;23.174;2023-07-09T07:32:38;23.40;99.40
15700;DHT22;7950;42.744;23.174;2023-07-09T07:35:10;23.50;94.70
15700;DHT22;7950;42.744;23.174;2023-07-09T07:37:41;23.70;96.90
15700;DHT22;7950;42.744;23.174;2023-07-09T07:40:10;23.90;94.90
15700;DHT22;7950;42.744;23.174;2023-07-09T07:42:41;24.10;93.40
15700;DHT22;7950;42.744;23.174;2023-07-09T07:45:10;24.20;91.60
15700;DHT22;7950;42.744;23.174;2023-07-09T07:47:38;24.20;92.60
15700;DHT22;7950;42.744;23.174;2023-07-09T07:50:08;24.30;92.20
15700;DHT22;7950;42.744;23.174;2023-07-09T07:52:37;24.30;91.90
15700;DHT22;7950;42.744;23.174;2023-07-09T07:55:07;24.30;92.20
15700;DHT22;7950;42.744;23.174;2023-07-09T07:57:43;24.30;93.00
15700;DHT22;7950;42.744;23.174;2023-07-09T08:00:13;24.40;90.50
15700;DHT22;7950;42.744;23.174;2023-07-09T08:02:42;24.40;90.80
15700;DHT22;7950;42.744;23.174;2023-07-09T08:05:11;24.40;91.70
15700;DHT22;7950;42.744;23.174;2023-07-09T08:07:39;24.40;90.60
15700;DHT22;7950;42.744;23.174;2023-07-09T08:10:08;24.40;91.30
15700;DHT22;7950;42.744;23.174;2023-07-09T08:12:37;24.60;92.70
15700;DHT22;7950;42.744;23.174;2023-07-09T08:15:08;24.80;89.00
15700;DHT22;7950;42.744;23.174;2023-07-09T08:17:38;24.70;86.40
15700;DHT22;7950;42.744;23.174;2023-07-09T08:20:07;24.80;82.50
15700;DHT22;7950;42.744;23.174;2023-07-09T08:22:37;24.80;84.60
15700;DHT22;7950;42.744;23.174;2023-07-09T08:25:07;24.80;83.00
15700;DHT22;7950;42.744;23.174;2023-07-09T08:27:36;24.90;86.90
15700;DHT22;7950;42.744;23.174;2023-07-09T08:30:07;25.10;85.00
15700;DHT22;7950;42.744;23.174;2023-07-09T08:32:36;25.20;82.90
15700;DHT22;7950;42.744;23.174;2023-07-09T08:35:05;25.20;83.60
15700;DHT22;7950;42.744;23.174;2023-07-09T08:37:40;25.20;81.90
15700;DHT22;7950;42.744;23.174;2023-07-09T08:40:12;25.20;82.90
15700;DHT22;7950;42.744;23.174;2023-07-09T08:42:44;25.40;83.50
15700;DHT22;7950;42.744;23.174;2023-07-09T08:45:38;25.50;83.00
15700;DHT22;7950;42.744;23.174;2023-07-09T08:48:17;25.60;80.40
15700;DHT22;7950;42.744;23.174;2023-07-09T08:50:56;25.60;76.90
15700;DHT22;7950;42.744;23.174;2023-07-09T08:53:38;25.60;78.90
15700;DHT22;7950;42.744;23.174;2023-07-09T08:56:09;25.70;80.30
15700;DHT22;7950;42.744;23.174;2023-07-09T08:58:38;25.90;80.30
15700;DHT22;7950;42.744;23.174;2023-07-09T09:01:18;26.00;78.90
15700;DHT22;7950;42.744;23.174;2023-07-09T09:03:50;26.10;74.30
15700;DHT22;7950;42.744;23.174;2023-07-09T09:06:24;26.20;76.30
15700;DHT22;7950;42.744;23.174;2023-07-09T09:09:02;26.30;74.70
15700;DHT22;7950;42.744;23.174;2023-07-09T09:11:44;26.40;75.80
15700;DHT22;7950;42.744;23.174;2023-07-09T09:14:24;26.40;74.60
15700;DHT22;7950;42.744;23.174;2023-07-09T09:16:57;26.40;73.70
15700;DHT22;7950;42.744;23.174;2023-07-09T09:19:29;26.50;74.80
15700;DHT22;7950;42.744;23.174;2023-07-09T09:22:07;26.50;73.00
15700;DHT22;7950;42.744;23.174;2023-07-09T09:24:51;26.50;72.60
15700;DHT22;7950;42.744;23.174;2023-07-09T09:27:25;26.60;71.90
15700;DHT22;7950;42.744;23.174;2023-07-09T09:29:53;26.50;68.90
15700;DHT22;7950;42.744;23.174;2023-07-09T09:32:25;26.50;70.40
15700;DHT22;7950;42.744;23.174;2023-07-09T09:34:55;26.50;69.90
15700;DHT22;7950;42.744;23.174;2023-07-09T09:37:27;26.40;70.00
15700;DHT22;7950;42.744;23.174;2023-07-09T09:39:59;26.50;70.60
15700;DHT22;7950;42.744;23.174;2023-07-09T09:42:44;26.60;68.40
15700;DHT22;7950;42.744;23.174;2023-07-09T09:45:16;26.60;68.20
15700;DHT22;7950;42.744;23.174;2023-07-09T09:47:48;26.60;67.00
15700;DHT22;7950;42.744;23.174;2023-07-09T09:50:19;26.60;69.30
15700;DHT22;7950;42.744;23.174;2023-07-09T09:52:50;26.80;69.50
15700;DHT22;7950;42.744;23.174;2023-07-09T09:55:24;26.90;68.00
15700;DHT22;7950;42.744;23.174;2023-07-09T09:57:56;26.80;68.00
15700;DHT22;7950;42.744;23.174;2023-07-09T10:00:27;26.80;67.80
15700;DHT22;7950;42.744;23.174;2023-07-09T10:03:03;26.80;68.50
15700;DHT22;7950;42.744;23.174;2023-07-09T10:05:39;26.80;67.60
15700;DHT22;7950;42.744;23.174;2023-07-09T10:08:16;26.90;65.90
15700;DHT22;7950;42.744;23.174;2023-07-09T10:10:57;26.90;67.00
15700;DHT22;7950;42.744;23.174;2023-07-09T10:13:38;27.00;67.60
15700;DHT22;7950;42.744;23.174;2023-07-09T10:16:15;27.10;69.50
15700;DHT22;7950;42.744;23.174;2023-07-09T10:18:55;27.10;67.10
15700;DHT22;7950;42.744;23.174;2023-07-09T10:21:34;27.00;64.20
15700;DHT22;7950;42.744;23.174;2023-07-09T10:24:25;27.00;67.00
15700;DHT22;7950;42.744;23.174;2023-07-09T10:27:11;27.10;65.80
15700;DHT22;7950;42.744;23.174;2023-07-09T10:29:59;27.30;65.70
15700;DHT22;7950;42.744;23.174;2023-07-09T10:32:59;27.40;67.60
15700;DHT22;7950;42.744;23.174;2023-07-09T10:35:41;27.40;64.90
15700;DHT22;7950;42.744;23.174;2023-07-09T10:38:23;27.50;66.80
15700;DHT22;7950;42.744;23.174;2023-07-09T10:41:03;27.60;65.70
15700;DHT22;7950;42.744;23.174;2023-07-09T10:43:47;27.70;65.20
15700;DHT22;7950;42.744;23.174;2023-07-09T10:46:23;27.60;64.10
15700;DHT22;7950;42.744;23.174;2023-07-09T10:48:56;27.70;65.70
15700;DHT22;7950;42.744;23.174;2023-07-09T10:51:31;27.70;64.30
15700;DHT22;7950;42.744;23.174;2023-07-09T10:54:10;27.60;64.10
15700;DHT22;7950;42.744;23.174;2023-07-09T10:56:47;27.60;64.30
15700;DHT22;7950;42.744;23.174;2023-07-09T10:59:22;27.70;66.70
15700;DHT22;7950;42.744;23.174;2023-07-09T11:01:58;27.80;64.40
15700;DHT22;7950;42.744;23.174;2023-07-09T11:04:39;27.70;63.60
15700;DHT22;7950;42.744;23.174;2023-07-09T11:07:16;27.70;64.60
15700;DHT22;7950;42.744;23.174;2023-07-09T11:10:02;27.80;64.70
15700;DHT22;7950;42.744;23.174;2023-07-09T11:12:37;27.80;65.90
15700;DHT22;7950;42.744;23.174;2023-07-09T11:15:13;27.80;65.10
15700;DHT22;7950;42.744;23.174;2023-07-09T11:17:46;27.70;64.20
15700;DHT22;7950;42.744;23.174;2023-07-09T11:20:20;27.60;63.50
15700;DHT22;7950;42.744;23.174;2023-07-09T11:23:01;27.50;66.50
15700;DHT22;7950;42.744;23.174;2023-07-09T11:25:40;27.40;67.10
15700;DHT22;7950;42.744;23.174;2023-07-09T11:28:11;27.50;67.70
15700;DHT22;7950;42.744;23.174;2023-07-09T11:30:49;27.70;66.00
15700;DHT22;7950;42.744;23.174;2023-07-09T11:33:26;27.90;67.40
15700;DHT22;7950;42.744;23.174;2023-07-09T11:36:08;28.00;64.10
15700;DHT22;7950;42.744;23.174;2023-07-09T11:38:42;28.00;63.70
15700;DHT22;7950;42.744;23.174;2023-07-09T11:41:34;28.00;64.00
15700;DHT22;7950;42.744;23.174;2023-07-09T11:44:15;28.00;61.30
15700;DHT22;7950;42.744;23.174;2023-07-09T11:47:00;28.00;64.90
15700;DHT22;7950;42.744;23.174;2023-07-09T11:49:48;27.90;63.90
15700;DHT22;7950;42.744;23.174;2023-07-09T11:52:25;27.90;63.50
15700;DHT22;7950;42.744;23.174;2023-07-09T11:55:01;27.90;63.60
15700;DHT22;7950;42.744;23.174;2023-07-09T11:57:39;27.80;62.70
15700;DHT22;7950;42.744;23.174;2023-07-09T12:00:09;27.80;62.20
15700;DHT22;7950;42.744;23.174;2023-07-09T12:02:38;27.80;62.60
15700;DHT22;7950;42.744;23.174;2023-07-09T12:05:07;27.90;64.10
15700;DHT22;7950;42.744;23.174;2023-07-09T12:07:37;27.90;61.20
15700;DHT22;7950;42.744;23.174;2023-07-09T12:10:18;27.80;62.60
15700;DHT22;7950;42.744;23.174;2023-07-09T12:12:53;27.80;62.20
15700;DHT22;7950;42.744;23.174;2023-07-09T12:15:25;27.80;62.80
15700;DHT22;7950;42.744;23.174;2023-07-09T12:17:56;27.80;63.40
15700;DHT22;7950;42.744;23.174;2023-07-09T12:20:29;28.00;63.30
15700;DHT22;7950;42.744;23.174;2023-07-09T12:22:59;28.10;63.30
15700;DHT22;7950;42.744;23.174;2023-07-09T12:25:30;28.20;63.90
15700;DHT22;7950;42.744;23.174;2023-07-09T12:27:59;28.10;63.60
15700;DHT22;7950;42.744;23.174;2023-07-09T12:30:32;28.20;63.70
15700;DHT22;7950;42.744;23.174;2023-07-09T12:33:07;28.30;62.80
15700;DHT22;7950;42.744;23.174;2023-07-09T12:35:36;28.20;63.70
15700;DHT22;7950;42.744;23.174;2023-07-09T12:38:16;28.20;63.20
15700;DHT22;7950;42.744;23.174;2023-07-09T12:40:48;28.20;63.50
15700;DHT22;7950;42.744;23.174;2023-07-09T12:43:22;28.10;63.90
15700;DHT22;7950;42.744;23.174;2023-07-09T12:45:53;28.10;64.90
15700;DHT22;7950;42.744;23.174;2023-07-09T12:48:24;28.10;65.70
15700;DHT22;7950;42.744;23.174;2023-07-09T12:50:56;28.10;64.50
15700;DHT22;7950;42.744;23.174;2023-07-09T12:53:27;28.10;65.90
15700;DHT22;7950;42.744;23.174;2023-07-09T12:56:00;28.10;65.50
15700;DHT22;7950;42.744;23.174;2023-07-09T12:58:30;28.00;65.60
15700;DHT22;7950;42.744;23.174;2023-07-09T13:01:04;27.90;65.80
15700;DHT22;7950;42.744;23.174;2023-07-09T13:03:35;27.70;64.10
15700;DHT22;7950;42.744;23.174;2023-07-09T13:06:20;27.60;65.10
15700;DHT22;7950;42.744;23.174;2023-07-09T13:08:56;27.70;67.00
15700;DHT22;7950;42.744;23.174;2023-07-09T13:11:34;27.80;65.00
15700;DHT22;7950;42.744;23.174;2023-07-09T13:14:11;27.90;65.00
15700;DHT22;7950;42.744;23.174;2023-07-09T13:16:46;27.90;63.80
15700;DHT22;7950;42.744;23.174;2023-07-09T13:19:15;28.00;63.40
15700;DHT22;7950;42.744;23.174;2023-07-09T13:21:44;28.20;66.90
15700;DHT22;7950;42.744;23.174;2023-07-09T13:24:17;28.30;65.90
15700;DHT22;7950;42.744;23.174;2023-07-09T13:26:50;28.40;66.40
15700;DHT22;7950;42.744;23.174;2023-07-09T13:29:20;28.30;64.20
15700;DHT22;7950;42.744;23.174;2023-07-09T13:31:49;28.30;65.90
15700;DHT22;7950;42.744;23.174;2023-07-09T13:34:20;28.30;65.40
15700;DHT22;7950;42.744;23.174;2023-07-09T13:36:51;28.30;64.50
15700;DHT22;7950;42.744;23.174;2023-07-09T13:39:23;28.20;65.50
15700;DHT22;7950;42.744;23.174;2023-07-09T13:41:56;28.10;65.40
15700;DHT22;7950;42.744;23.174;2023-07-09T13:44:27;28.20;66.10
15700;DHT22;7950;42.744;23.174;2023-07-09T13:46:57;28.10;64.70
15700;DHT22;7950;42.744;23.174;2023-07-09T13:49:27;28.00;64.80
15700;DHT22;7950;42.744;23.174;2023-07-09T13:51:59;27.80;65.70
15700;DHT22;7950;42.744;23.174;2023-07-09T13:54:30;27.90;65.90
15700;DHT22;7950;42.744;23.174;2023-07-09T13:57:05;27.90;66.10
15700;DHT22;7950;42.744;23.174;2023-07-09T13:59:39;28.00;65.20
15700;DHT22;7950;42.744;23.174;2023-07-09T14:02:19;28.10;66.10
15700;DHT22;7950;42.744;23.174;2023-07-09T14:04:51;28.10;63.80
15700;DHT22;7950;42.744;23.174;2023-07-09T14:07:26;28.20;63.90
15700;DHT22;7950;42.744;23.174;2023-07-09T14:09:57;28.30;61.50
15700;DHT22;7950;42.744;23.174;2023-07-09T14:12:28;28.30;61.20
15700;DHT22;7950;42.744;23.174;2023-07-09T14:14:59;28.30;63.50
15700;DHT22;7950;42.744;23.174;2023-07-09T14:17:29;28.20;59.20
15700;DHT22;7950;42.744;23.174;2023-07-09T14:19:58;28.10;60.20
15700;DHT22;7950;42.744;23.174;2023-07-09T14:22:30;27.90;59.40
15700;DHT22;7950;42.744;23.174;2023-07-09T14:25:03;27.70;59.80
15700;DHT22;7950;42.744;23.174;2023-07-09T14:27:35;27.60;58.90
15700;DHT22;7950;42.744;23.174;2023-07-09T14:30:04;27.40;59.50
15700;DHT22;7950;42.744;23.174;2023-07-09T14:32:36;27.30;60.80
15700;DHT22;7950;42.744;23.174;2023-07-09T14:35:12;27.30;61.70
15700;DHT22;7950;42.744;23.174;2023-07-09T14:37:44;27.30;59.90
15700;DHT22;7950;42.744;23.174;2023-07-09T14:40:14;27.30;59.90
15700;DHT22;7950;42.744;23.174;2023-07-09T14:42:47;27.20;59.80
15700;DHT22;7950;42.744;23.174;2023-07-09T14:45:19;27.30;60.20
15700;DHT22;7950;42.744;23.174;2023-07-09T14:47:51;27.30;61.30
15700;DHT22;7950;42.744;23.174;2023-07-09T14:50:22;27.30;60.70
15700;DHT22;7950;42.744;23.174;2023-07-09T14:52:51;27.30;61.10
15700;DHT22;7950;42.744;23.174;2023-07-09T14:55:21;27.30;60.50
15700;DHT22;7950;42.744;23.174;2023-07-09T14:57:52;27.30;61.90
15700;DHT22;7950;42.744;23.174;2023-07-09T15:00:22;27.20;61.50
15700;DHT22;7950;42.744;23.174;2023-07-09T15:02:52;27.10;60.80
15700;DHT22;7950;42.744;23.174;2023-07-09T15:05:24;27.10;61.00
15700;DHT22;7950;42.744;23.174;2023-07-09T15:07:55;27.10;60.60
15700;DHT22;7950;42.744;23.174;2023-07-09T15:10:25;27.10;60.20
15700;DHT22;7950;42.744;23.174;2023-07-09T15:12:56;27.10;58.80
15700;DHT22;7950;42.744;23.174;2023-07-09T15:15:26;27.00;60.70
15700;DHT22;7950;42.744;23.174;2023-07-09T15:17:59;27.10;62.60
15700;DHT22;7950;42.744;23.174;2023-07-09T15:20:30;27.10;63.10
15700;DHT22;7950;42.744;23.174;2023-07-09T15:22:59;27.10;63.60
15700;DHT22;7950;42.744;23.174;2023-07-09T15:25:29;27.10;65.10
15700;DHT22;7950;42.744;23.174;2023-07-09T15:28:00;27.00;64.80
15700;DHT22;7950;42.744;23.174;2023-07-09T15:30:30;26.90;63.70
15700;DHT22;7950;42.744;23.174;2023-07-09T15:33:00;26.80;64.80
15700;DHT22;7950;42.744;23.174;2023-07-09T15:35:36;26.80;66.80
15700;DHT22;7950;42.744;23.174;2023-07-09T15:38:19;26.70;68.50
15700;DHT22;7950;42.744;23.174;2023-07-09T15:40:53;26.60;68.50
15700;DHT22;7950;42.744;23.174;2023-07-09T15:43:23;26.70;69.70
15700;DHT22;7950;42.744;23.174;2023-07-09T15:45:55;26.70;71.00
15700;DHT22;7950;42.744;23.174;2023-07-09T15:48:27;26.70;70.20
15700;DHT22;7950;42.744;23.174;2023-07-09T15:51:00;26.80;71.00
15700;DHT22;7950;42.744;23.174;2023-07-09T15:53:30;26.80;69.90
15700;DHT22;7950;42.744;23.174;2023-07-09T15:56:01;26.70;70.20
15700;DHT22;7950;42.744;23.174;2023-07-09T15:58:37;26.60;70.60
15700;DHT22;7950;42.744;23.174;2023-07-09T16:01:10;26.60;71.30